Time;durP1;ratioP1;P1;durP2;ratioP2;P2;SDS_P1;SDS_P2;PMS_P1;PMS_P2;Temp;Humidity;BMP_temperature;BMP_pressure;BME280_temperature;BME280_humidity;BME280_pressure;Samples;Min_cycle;Max_cycle;Signal;HPM_P1;HPM_P2
2023/04/14 00:00:35;;;;;;;;;1.00;1.00;;;;;12.24;52.07;100364.59;2088943;28;46914;-60
2023/04/14 00:01:35;;;;;;;;;1.00;1.00;;;;;12.24;52.30;100367.25;2092724;28;46762;-61
2023/04/14 00:02:36;;;;;;;;;0.67;0.67;;;;;12.27;52.45;100376.91;2100051;28;46454;-61
2023/04/14 00:03:36;;;;;;;;;1.00;1.00;;;;;12.27;52.44;100375.13;2090730;28;46223;-61
2023/04/14 00:04:36;;;;;;;;;1.67;1.33;;;;;12.27;52.20;100380.44;2081413;28;46407;-60
2023/04/14 00:05:37;;;;;;;;;1.00;1.00;;;;;12.27;52.48;100375.13;2088076;28;46300;-61
2023/04/14 00:06:37;;;;;;;;;1.00;1.00;;;;;12.28;52.37;100376.00;2097012;28;47151;-62
2023/04/14 00:07:37;;;;;;;;;3.00;2.00;;;;;12.28;52.47;100376.88;2096458;28;46210;-60
2023/04/14 00:08:38;;;;;;;;;1.33;1.33;;;;;12.29;52.30;100380.38;2100068;28;46743;-60
2023/04/14 00:09:38;;;;;;;;;2.00;2.00;;;;;12.29;52.58;100378.59;2097159;28;46443;-60
2023/04/14 00:10:38;;;;;;;;;3.00;2.00;;;;;12.31;52.59;100378.53;2081998;28;46317;-59
2023/04/14 00:11:39;;;;;;;;;1.00;1.00;;;;;12.31;52.65;100381.19;2085721;28;46828;-61
2023/04/14 00:12:39;;;;;;;;;2.67;1.00;;;;;12.31;52.71;100378.53;2095962;28;46086;-60
2023/04/14 00:13:39;;;;;;;;;3.67;2.00;;;;;12.31;52.67;100381.19;2097132;28;46371;-58
2023/04/14 00:14:41;;;;;;;;;2.00;2.00;;;;;12.30;52.52;100375.00;2099907;28;45942;-60
2023/04/14 00:15:42;;;;;;;;;1.25;1.25;;;;;12.29;52.71;100369.75;2094921;28;46460;-60
2023/04/14 00:16:44;;;;;;;;;2.67;2.67;;;;;12.30;52.70;100374.16;2082194;28;46877;-60
2023/04/14 00:17:45;;;;;;;;;2.25;2.25;;;;;12.29;52.79;100373.28;2094417;28;46355;-60
2023/04/14 00:18:45;;;;;;;;;2.00;2.00;;;;;12.28;52.94;100368.88;2095732;28;45918;-62
2023/04/14 00:19:46;;;;;;;;;2.33;2.33;;;;;12.28;52.91;100370.66;2096621;28;46830;-61
2023/04/14 00:20:46;;;;;;;;;1.33;1.33;;;;;12.26;52.88;100370.72;2096333;28;46434;-60
2023/04/14 00:21:47;;;;;;;;;2.00;2.00;;;;;12.25;53.01;100362.81;2097688;28;46688;-61
2023/04/14 00:22:47;;;;;;;;;2.00;2.00;;;;;12.26;53.07;100361.88;2091497;28;46307;-61
2023/04/14 00:23:48;;;;;;;;;3.00;3.00;;;;;12.25;53.08;100365.47;2094648;28;46475;-61
2023/04/14 00:24:49;;;;;;;;;2.00;2.00;;;;;12.24;53.07;100367.25;2094447;28;46677;-61
2023/04/14 00:25:50;;;;;;;;;2.25;2.00;;;;;12.23;53.08;100370.84;2096891;28;46755;-60
2023/04/14 00:26:50;;;;;;;;;1.33;1.33;;;;;12.22;53.04;100361.13;2100072;28;46712;-59
2023/04/14 00:27:51;;;;;;;;;2.00;2.00;;;;;12.20;53.22;100357.66;2097967;28;46627;-61
2023/04/14 00:28:51;;;;;;;;;0.00;0.00;;;;;12.20;53.29;100360.31;2098371;28;46500;-60
2023/04/14 00:29:51;;;;;;;;;1.67;1.67;;;;;12.21;53.30;100361.19;2096445;28;46204;-60
2023/04/14 00:30:52;;;;;;;;;1.67;1.67;;;;;12.20;53.30;100355.00;2093411;28;46473;-61
2023/04/14 00:31:52;;;;;;;;;1.67;1.67;;;;;12.20;53.59;100356.78;2090546;28;46930;-60
2023/04/14 00:32:53;;;;;;;;;1.00;1.00;;;;;12.19;53.43;100355.00;2100904;28;46569;-60
2023/04/14 00:33:53;;;;;;;;;2.00;2.00;;;;;12.17;53.74;100365.72;2101267;28;45699;-59
2023/04/14 00:34:55;;;;;;;;;0.00;0.00;;;;;12.17;53.48;100355.06;2096908;28;46630;-60
2023/04/14 00:35:56;;;;;;;;;1.00;1.00;;;;;12.17;53.42;100360.38;2098284;28;46679;-60
2023/04/14 00:36:56;;;;;;;;;4.00;1.00;;;;;12.16;53.69;100357.78;2104078;28;46305;-61
2023/04/14 00:37:57;;;;;;;;;1.33;1.33;;;;;12.14;53.55;100360.50;2088076;28;46344;-61
2023/04/14 00:38:59;;;;;;;;;1.25;1.00;;;;;12.13;53.73;100358.75;2090072;28;45232;-61
2023/04/14 00:39:59;;;;;;;;;1.00;1.00;;;;;12.12;53.88;100358.81;2096969;28;46587;-60
2023/04/14 00:40:59;;;;;;;;;0.67;0.67;;;;;12.11;53.73;100360.63;2096827;28;45465;-60
2023/04/14 00:42:01;;;;;;;;;2.00;1.00;;;;;12.10;53.79;100358.00;2096364;28;46295;-59
2023/04/14 00:43:01;;;;;;;;;1.00;1.00;;;;;12.10;53.69;100360.66;2096199;28;46430;-61
2023/04/14 00:44:01;;;;;;;;;1.00;0.00;;;;;12.09;53.77;100362.47;2098326;28;46855;-60
2023/04/14 00:45:02;;;;;;;;;1.00;1.00;;;;;12.09;53.72;100351.81;2096401;28;46329;-61
2023/04/14 00:46:02;;;;;;;;;3.00;3.00;;;;;12.09;53.93;100359.81;2091896;28;47108;-60
2023/04/14 00:47:03;;;;;;;;;2.00;2.00;;;;;12.10;53.70;100353.56;2092809;28;47055;-60
2023/04/14 00:48:03;;;;;;;;;1.67;1.67;;;;;12.10;53.88;100358.88;2098324;28;46568;-61
2023/04/14 00:49:04;;;;;;;;;1.00;1.00;;;;;12.12;53.81;100356.16;2103014;28;45675;-60
2023/04/14 00:50:05;;;;;;;;;1.00;1.00;;;;;12.11;53.76;100355.28;2092787;28;46926;-60
2023/04/14 00:51:05;;;;;;;;;1.50;1.50;;;;;12.11;54.01;100354.44;2070104;28;46572;-59
2023/04/14 00:52:06;;;;;;;;;2.00;2.00;;;;;12.13;54.05;100352.56;2078511;28;46449;-60
2023/04/14 00:53:06;;;;;;;;;2.00;2.00;;;;;12.13;54.02;100350.78;2082945;28;47199;-60
2023/04/14 00:54:08;;;;;;;;;1.00;1.00;;;;;12.12;53.69;100353.50;2079731;28;46445;-60
2023/04/14 00:55:09;;;;;;;;;1.25;1.25;;;;;12.10;53.88;100340.25;2077043;28;46310;-61
2023/04/14 00:56:11;;;;;;;;;2.00;2.00;;;;;12.10;53.89;100344.72;2079402;28;46606;-60
2023/04/14 00:57:11;;;;;;;;;3.00;2.00;;;;;12.08;54.06;100342.97;2078672;28;46313;-60
2023/04/14 00:58:13;;;;;;;;;1.00;1.00;;;;;12.09;53.94;100343.84;2080440;28;46199;-61
2023/04/14 00:59:15;;;;;;;;;1.75;1.50;;;;;12.08;53.89;100337.66;2079143;28;46226;-60
2023/04/14 01:00:16;;;;;;;;;1.50;1.50;;;;;12.08;54.01;100342.09;2079921;28;46792;-61
2023/04/14 01:01:16;;;;;;;;;1.00;1.00;;;;;12.05;54.14;100340.41;2078705;28;46227;-61
2023/04/14 01:02:16;;;;;;;;;2.33;1.67;;;;;12.03;53.93;100336.91;2072649;28;46163;-60
2023/04/14 01:03:17;;;;;;;;;2.00;1.00;;;;;12.02;53.98;100342.28;2070584;28;47095;-61
2023/04/14 01:04:18;;;;;;;;;2.33;2.33;;;;;12.00;54.20;100342.34;2077566;28;46156;-62
2023/04/14 01:05:19;;;;;;;;;1.50;1.50;;;;;11.98;54.04;100338.00;2079023;28;46108;-62
2023/04/14 01:06:19;;;;;;;;;4.00;4.00;;;;;11.98;54.08;100344.19;2081925;28;46810;-61
2023/04/14 01:07:22;;;;;;;;;2.00;2.00;;;;;11.98;54.08;100335.34;2070589;28;46934;-60
2023/04/14 01:08:23;;;;;;;;;1.00;1.00;;;;;11.97;53.98;100333.63;2070776;28;47026;-61
2023/04/14 01:09:24;;;;;;;;;2.00;2.00;;;;;11.95;54.38;100344.31;2078006;28;46569;-60
2023/04/14 01:10:33;;;;;;;;;2.67;2.67;;;;;11.95;53.93;100340.78;2079222;28;46635;-60
2023/04/14 01:11:57;;;;;;;;;2.00;2.00;;;;;11.93;54.29;100342.59;2078317;28;46711;-61
2023/04/14 01:13:15;;;;;;;;;2.75;2.75;;;;;11.92;54.32;100340.84;2078777;28;46348;-60
2023/04/14 01:14:21;;;;;;;;;3.75;2.00;;;;;11.92;54.45;100335.53;2078216;28;46251;-61
2023/04/14 01:15:34;;;;;;;;;2.75;2.75;;;;;11.91;54.29;100336.47;2079008;28;46561;-61
2023/04/14 01:16:39;;;;;;;;;2.00;2.00;;;;;11.89;54.44;100341.84;2078647;28;46447;-62
2023/04/14 01:17:57;;;;;;;;;3.00;3.00;;;;;11.88;54.46;100336.56;2075600;28;46369;-61
2023/04/14 01:19:42;;;;;;;;;2.50;2.50;;;;;11.86;54.73;100341.94;2078464;28;46847;-61
2023/04/14 01:20:47;;;;;;;;;1.25;1.25;;;;;11.85;54.77;100342.00;2046481;28;46381;-62
2023/04/14 01:21:53;;;;;;;;;2.75;2.75;;;;;11.83;54.75;100344.72;2053935;28;47084;-60
2023/04/14 01:23:03;;;;;;;;;3.00;3.00;;;;;11.83;54.66;100349.16;2053931;28;46949;-60
2023/04/14 01:24:15;;;;;;;;;4.00;3.00;;;;;11.81;54.81;100346.53;2051871;28;46661;-60
2023/04/14 01:25:20;;;;;;;;;2.50;2.50;;;;;11.79;54.87;100346.56;2054387;28;45639;-59
2023/04/14 01:26:29;;;;;;;;;2.25;2.25;;;;;11.78;54.90;100341.28;2052145;28;46499;-61
2023/04/14 01:27:56;;;;;;;;;2.00;2.00;;;;;11.76;54.83;100338.66;2041562;28;46394;-60
2023/04/14 01:29:30;;;;;;;;;2.00;2.00;;;;;11.75;54.97;100346.69;2048126;28;46703;-60
2023/04/14 01:30:41;;;;;;;;;2.50;2.50;;;;;11.72;55.08;100344.16;2055661;28;45767;-61
2023/04/14 01:32:20;;;;;;;;;3.20;3.20;;;;;11.68;55.23;100348.69;2061863;28;46629;-60
2023/04/14 01:33:25;;;;;;;;;3.50;3.00;;;;;11.67;55.26;100343.41;2038876;28;46034;-60
2023/04/14 01:34:38;;;;;;;;;3.25;3.25;;;;;11.65;54.98;100346.13;2038115;28;46625;-60
2023/04/14 01:35:47;;;;;;;;;4.00;2.75;;;;;11.64;55.28;100346.19;2038910;28;46164;-61
2023/04/14 01:37:00;;;;;;;;;3.00;3.00;;;;;11.64;55.42;100346.19;2038156;28;47005;-62
2023/04/14 01:38:09;;;;;;;;;3.00;3.00;;;;;11.63;55.50;100345.31;2030471;29;47631;-61
2023/04/14 01:39:15;;;;;;;;;2.00;2.00;;;;;11.64;55.58;100340.84;2037026;28;46346;-61
2023/04/14 01:40:18;;;;;;;;;3.00;3.00;;;;;11.64;55.65;100340.84;2039438;28;46619;-60
2023/04/14 01:41:21;;;;;;;;;2.00;2.00;;;;;11.62;55.31;100346.22;2041622;28;47639;-60
2023/04/14 01:42:25;;;;;;;;;3.25;3.25;;;;;11.62;55.61;100345.34;2038223;28;45811;-63
2023/04/14 01:43:29;;;;;;;;;3.25;3.25;;;;;11.63;55.50;100344.44;2038438;28;46385;-61
2023/04/14 01:44:31;;;;;;;;;3.00;3.00;;;;;11.62;55.43;100350.69;2038681;28;46151;-60
2023/04/14 01:45:37;;;;;;;;;3.00;3.00;;;;;11.64;55.66;100346.19;2030330;28;46645;-60
2023/04/14 01:46:40;;;;;;;;;3.00;3.00;;;;;11.64;55.49;100349.69;2031650;28;45689;-60
2023/04/14 01:47:42;;;;;;;;;3.80;2.80;;;;;11.63;55.69;100349.75;2037073;28;46548;-61
2023/04/14 01:48:44;;;;;;;;;3.25;2.75;;;;;11.62;55.55;100346.22;2035449;28;47211;-61
2023/04/14 01:49:47;;;;;;;;;2.75;2.75;;;;;11.61;55.41;100343.63;2038068;28;46863;-61
2023/04/14 01:50:48;;;;;;;;;2.60;2.60;;;;;11.60;55.46;100349.84;2038608;28;45105;-61
2023/04/14 01:51:51;;;;;;;;;2.00;2.00;;;;;11.59;55.53;100337.50;2039330;28;47578;-60
2023/04/14 01:52:55;;;;;;;;;3.40;3.40;;;;;11.57;55.75;100348.19;2046263;28;46595;-60
2023/04/14 01:53:58;;;;;;;;;3.00;3.00;;;;;11.58;55.90;100344.59;2049500;28;46927;-60
2023/04/14 01:55:04;;;;;;;;;3.00;3.00;;;;;11.58;55.65;100338.41;2047487;28;46686;-60
2023/04/14 01:56:08;;;;;;;;;2.50;2.50;;;;;11.58;55.94;100341.06;2045812;28;46476;-61
2023/04/14 01:57:11;;;;;;;;;2.00;2.00;;;;;11.56;56.04;100346.44;2045221;28;46199;-60
2023/04/14 01:58:16;;;;;;;;;4.00;3.00;;;;;11.56;56.12;100337.56;2051571;28;46162;-60
2023/04/14 01:59:19;;;;;;;;;3.75;3.75;;;;;11.55;55.77;100342.00;2049529;28;46578;-60
2023/04/14 02:00:22;;;;;;;;;1.75;1.75;;;;;11.53;56.05;100337.66;2046064;28;47813;-60
2023/04/14 02:01:26;;;;;;;;;2.00;2.00;;;;;11.53;55.94;100345.63;2050330;28;46913;-60
2023/04/14 02:02:27;;;;;;;;;2.25;2.25;;;;;11.53;56.23;100340.31;2052099;28;46742;-59
2023/04/14 02:03:28;;;;;;;;;2.50;2.50;;;;;11.53;56.09;100341.19;2050870;28;46865;-61
2023/04/14 02:04:31;;;;;;;;;2.33;2.33;;;;;11.54;56.02;100344.72;2049153;28;46268;-59
2023/04/14 02:05:38;;;;;;;;;3.50;2.75;;;;;11.54;56.22;100344.72;2045487;28;46178;-61
2023/04/14 02:06:39;;;;;;;;;3.00;3.00;;;;;11.54;56.35;100339.41;2046105;28;47135;-59
2023/04/14 02:07:41;;;;;;;;;3.50;3.50;;;;;11.52;56.05;100338.59;2055235;28;46707;-60
2023/04/14 02:08:42;;;;;;;;;4.40;4.20;;;;;11.52;56.33;100342.13;2086112;28;47488;-60
2023/04/14 02:09:44;;;;;;;;;3.80;3.80;;;;;11.51;55.98;100337.72;2092016;28;46631;-60
2023/04/14 02:10:46;;;;;;;;;4.20;3.60;;;;;11.52;56.10;100335.94;2087856;28;46431;-59
2023/04/14 02:11:49;;;;;;;;;3.00;3.00;;;;;11.52;56.27;100343.91;2087892;28;46303;-59
2023/04/14 02:12:53;;;;;;;;;3.50;2.25;;;;;11.51;56.10;100332.41;2091094;28;46929;-60
2023/04/14 02:13:55;;;;;;;;;3.25;3.25;;;;;11.53;56.19;100337.66;2089600;28;46311;-61
2023/04/14 02:14:58;;;;;;;;;3.00;3.00;;;;;11.52;56.03;100339.47;2082977;28;46758;-59
2023/04/14 02:16:00;;;;;;;;;3.00;3.00;;;;;11.50;56.26;100335.97;2081776;28;45655;-60
2023/04/14 02:17:01;;;;;;;;;2.50;2.50;;;;;11.48;56.45;100341.34;2083060;28;47044;-60
2023/04/14 02:18:04;;;;;;;;;2.00;2.00;;;;;11.47;56.51;100344.06;2088317;28;45548;-60
2023/04/14 02:19:05;;;;;;;;;3.50;3.00;;;;;11.46;56.52;100344.97;2089736;28;46384;-61
2023/04/14 02:20:08;;;;;;;;;2.33;2.33;;;;;11.46;56.32;100345.84;2093045;28;46387;-60
2023/04/14 02:21:09;;;;;;;;;3.00;3.00;;;;;11.45;56.31;100352.09;2084205;28;46719;-60
2023/04/14 02:22:09;;;;;;;;;2.33;2.33;;;;;11.45;56.38;100340.59;2094489;28;46620;-60
2023/04/14 02:23:11;;;;;;;;;3.00;3.00;;;;;11.43;56.22;100343.28;2095882;28;46487;-61
2023/04/14 02:24:11;;;;;;;;;3.75;3.75;;;;;11.44;56.19;100347.69;2090310;28;46815;-61
2023/04/14 02:25:12;;;;;;;;;2.33;2.33;;;;;11.44;56.29;100352.13;2092170;28;46387;-60
2023/04/14 02:26:15;;;;;;;;;3.00;3.00;;;;;11.43;56.29;100347.72;2087544;28;46648;-61
2023/04/14 02:27:22;;;;;;;;;3.25;3.25;;;;;11.42;56.25;100351.28;2082963;28;46383;-61
2023/04/14 02:28:28;;;;;;;;;3.00;3.00;;;;;11.41;56.33;100338.91;2086883;28;46946;-61
2023/04/14 02:29:32;;;;;;;;;2.00;2.00;;;;;11.40;56.40;100345.16;2088061;28;47409;-60
2023/04/14 02:30:37;;;;;;;;;3.00;3.00;;;;;11.40;56.48;100342.50;2087639;28;46635;-60
2023/04/14 02:32:00;;;;;;;;;3.40;3.40;;;;;11.37;56.74;100340.81;2095603;28;46912;-60
2023/04/14 02:33:06;;;;;;;;;3.80;3.80;;;;;11.37;56.51;100338.16;2090030;28;46356;-60
2023/04/14 02:34:10;;;;;;;;;4.40;4.40;;;;;11.35;56.71;100337.34;2078994;28;47899;-61
2023/04/14 02:35:15;;;;;;;;;4.00;4.00;;;;;11.33;56.69;100325.91;2083269;28;46530;-60
2023/04/14 02:36:17;;;;;;;;;4.60;4.00;;;;;11.32;56.59;100332.13;2082824;28;46370;-60
2023/04/14 02:37:24;;;;;;;;;4.00;3.00;;;;;11.32;56.64;100328.59;2082429;28;46519;-60
2023/04/14 02:38:59;;;;;;;;;3.60;3.60;;;;;11.30;56.68;100325.97;2091491;28;46591;-61
2023/04/14 02:40:03;;;;;;;;;4.60;4.20;;;;;11.30;56.63;100325.97;2061605;28;45147;-61
2023/04/14 02:41:22;;;;;;;;;3.80;3.80;;;;;11.30;56.98;100330.41;2062856;28;46709;-61
2023/04/14 02:42:26;;;;;;;;;3.00;3.00;;;;;11.29;56.69;100324.22;2063239;28;46856;-61
2023/04/14 02:43:32;;;;;;;;;3.40;3.40;;;;;11.31;56.77;100324.22;2063107;28;46643;-60
2023/04/14 02:44:37;;;;;;;;;4.00;4.00;;;;;11.29;56.91;100323.34;2061930;28;47221;-60
2023/04/14 02:45:41;;;;;;;;;4.00;4.00;;;;;11.28;56.87;100325.16;2056633;28;46540;-61
2023/04/14 02:46:48;;;;;;;;;3.80;3.80;;;;;11.27;56.97;100326.06;2055322;28;47152;-61
2023/04/14 02:47:54;;;;;;;;;1.00;0.80;;;;;11.25;57.07;100319.06;2062368;28;45601;-60
2023/04/14 02:48:56;;;;;;;;;4.00;3.00;;;;;11.24;57.05;100323.50;2064319;28;46716;-61
2023/04/14 02:50:00;;;;;;;;;4.00;4.00;;;;;11.23;57.04;100321.78;2062499;28;46585;-61
2023/04/14 02:51:03;;;;;;;;;3.60;3.60;;;;;11.22;57.12;100320.03;2058680;28;46671;-60
2023/04/14 02:52:05;;;;;;;;;4.40;4.40;;;;;11.20;56.90;100321.88;2061862;28;46564;-60
2023/04/14 02:53:06;;;;;;;;;4.60;4.60;;;;;11.18;57.23;100313.09;2066332;28;46883;-60
2023/04/14 02:54:07;;;;;;;;;4.75;4.75;;;;;11.16;57.09;100312.25;2061788;28;46344;-60
2023/04/14 02:55:09;;;;;;;;;5.20;4.80;;;;;11.16;57.23;100314.91;2053653;28;46281;-60
2023/04/14 02:56:10;;;;;;;;;3.25;3.25;;;;;11.15;57.41;100313.16;2054354;28;46674;-61
2023/04/14 02:57:12;;;;;;;;;4.20;4.20;;;;;11.14;57.47;100314.94;2061223;28;46989;-61
2023/04/14 02:58:14;;;;;;;;;1.00;1.00;;;;;11.14;57.38;100311.44;2061945;28;46836;-60
2023/04/14 02:59:16;;;;;;;;;3.60;3.60;;;;;11.14;57.42;100316.72;2061605;28;46874;-60
2023/04/14 03:00:17;;;;;;;;;7.00;4.80;;;;;11.12;57.51;100306.16;2065067;28;46900;-61
2023/04/14 03:01:19;;;;;;;;;3.20;3.20;;;;;11.11;57.62;100304.44;2061336;28;46950;-60
2023/04/14 03:02:20;;;;;;;;;5.00;3.00;;;;;11.11;57.39;100300.91;2059887;28;45715;-61
2023/04/14 03:03:23;;;;;;;;;4.00;3.20;;;;;11.11;57.38;100303.56;2061415;28;46623;-61
2023/04/14 03:04:24;;;;;;;;;4.60;4.60;;;;;11.11;57.58;100301.78;2062221;28;46865;-61
2023/04/14 03:05:25;;;;;;;;;2.60;2.60;;;;;11.11;57.52;100301.78;2061870;28;45735;-61
2023/04/14 03:06:27;;;;;;;;;3.20;3.20;;;;;11.11;57.75;100293.81;2062132;28;46687;-60
2023/04/14 03:07:28;;;;;;;;;4.00;4.00;;;;;11.11;57.47;100298.25;2061557;28;46233;-61
2023/04/14 03:08:28;;;;;;;;;4.00;3.25;;;;;11.11;57.53;100299.13;2049379;28;46530;-61
2023/04/14 03:09:30;;;;;;;;;3.00;3.00;;;;;11.12;57.75;100299.97;2045601;28;46039;-62
2023/04/14 03:10:32;;;;;;;;;3.60;3.60;;;;;11.11;57.40;100293.81;2067803;28;45967;-61
2023/04/14 03:11:35;;;;;;;;;5.00;3.60;;;;;11.11;57.36;100295.59;2061552;28;46819;-61
2023/04/14 03:12:36;;;;;;;;;3.60;3.60;;;;;11.11;57.77;100299.13;2060291;28;46702;-63
2023/04/14 03:13:39;;;;;;;;;6.40;5.00;;;;;11.12;57.79;100292.00;2066638;28;46291;-60
2023/04/14 03:14:41;;;;;;;;;3.20;3.20;;;;;11.12;57.61;100297.31;2058993;28;45162;-61
2023/04/14 03:15:43;;;;;;;;;3.00;3.00;;;;;11.12;57.61;100294.66;2057058;28;46713;-60
2023/04/14 03:16:45;;;;;;;;;4.00;4.00;;;;;11.10;57.75;100289.41;2079521;28;46903;-62
2023/04/14 03:17:47;;;;;;;;;4.00;4.00;;;;;11.11;57.61;100290.28;2079567;28;46552;-60
2023/04/14 03:18:49;;;;;;;;;3.00;2.00;;;;;11.12;57.79;100292.00;2085600;28;47143;-60
2023/04/14 03:19:51;;;;;;;;;3.80;3.80;;;;;11.12;57.82;100289.34;2087752;28;46895;-61
2023/04/14 03:20:54;;;;;;;;;4.00;4.00;;;;;11.13;57.75;100288.44;2087322;28;46324;-61
2023/04/14 03:21:57;;;;;;;;;4.60;4.00;;;;;11.14;57.62;100287.53;2090040;28;46510;-61
2023/04/14 03:23:04;;;;;;;;;4.00;4.00;;;;;11.15;57.49;100289.25;2086946;28;46576;-61
2023/04/14 03:24:05;;;;;;;;;3.00;3.00;;;;;11.16;57.56;100283.03;2086999;28;46528;-60
2023/04/14 03:25:08;;;;;;;;;2.80;2.80;;;;;11.16;57.54;100286.56;2087514;28;46506;-61
2023/04/14 03:26:12;;;;;;;;;4.00;3.25;;;;;11.17;57.76;100282.97;2087556;28;46531;-62
2023/04/14 03:27:17;;;;;;;;;5.40;4.80;;;;;11.18;57.67;100286.53;2081205;28;47750;-60
2023/04/14 03:28:21;;;;;;;;;5.40;5.40;;;;;11.17;57.58;100282.09;2087718;28;47181;-61
2023/04/14 03:29:25;;;;;;;;;6.80;6.80;;;;;11.16;57.62;100280.38;2088048;28;45901;-60
2023/04/14 03:30:29;;;;;;;;;8.60;8.60;;;;;11.16;57.78;100288.34;2087757;28;46564;-60
2023/04/14 03:31:35;;;;;;;;;5.20;4.00;;;;;11.15;57.83;100281.28;2087008;28;46469;-61
2023/04/14 03:32:40;;;;;;;;;5.00;4.80;;;;;11.13;57.87;100280.47;2086784;28;46686;-60
2023/04/14 03:33:43;;;;;;;;;4.40;4.40;;;;;11.13;57.89;100281.34;2079424;28;46570;-60
2023/04/14 03:34:46;;;;;;;;;3.20;3.20;;;;;11.12;57.91;100279.59;2083082;28;46742;-61
2023/04/14 03:35:49;;;;;;;;;4.00;3.80;;;;;11.14;57.90;100284.88;2087555;28;46116;-61
2023/04/14 03:36:53;;;;;;;;;4.00;4.00;;;;;11.12;57.99;100290.22;2086546;28;46208;-60
2023/04/14 03:37:58;;;;;;;;;4.20;4.00;;;;;11.12;58.07;100286.69;2086974;28;47142;-61
2023/04/14 03:39:01;;;;;;;;;2.00;2.00;;;;;11.11;57.94;100280.53;2091707;28;46561;-61
2023/04/14 03:40:04;;;;;;;;;5.40;4.60;;;;;11.11;57.82;100285.84;2080655;28;46698;-61
2023/04/14 03:41:06;;;;;;;;;5.20;3.60;;;;;11.13;57.73;100291.09;2077755;28;46483;-62
2023/04/14 03:42:07;;;;;;;;;2.00;2.00;;;;;11.12;58.08;100282.25;2082796;28;46573;-60
2023/04/14 03:43:11;;;;;;;;;3.00;3.00;;;;;11.12;58.03;100286.69;2086507;28;46241;-59
2023/04/14 03:44:14;;;;;;;;;3.00;3.00;;;;;11.12;57.88;100289.34;2080490;28;46530;-60
2023/04/14 03:45:15;;;;;;;;;3.75;2.50;;;;;11.12;58.04;100284.06;2091356;28;46242;-60
2023/04/14 03:46:16;;;;;;;;;4.00;3.00;;;;;11.10;58.15;100286.75;2101380;28;46021;-60
2023/04/14 03:47:18;;;;;;;;;5.25;5.00;;;;;11.10;58.49;100283.22;2098765;28;46360;-62
2023/04/14 03:48:19;;;;;;;;;4.60;3.80;;;;;11.09;58.24;100285.03;2105003;28;46539;-59
2023/04/14 03:49:22;;;;;;;;;4.20;3.60;;;;;11.07;57.96;100278.88;2096985;28;46285;-62
2023/04/14 03:50:29;;;;;;;;;4.40;4.40;;;;;11.08;58.48;100279.75;2096212;28;46941;-59
2023/04/14 03:51:31;;;;;;;;;3.40;3.40;;;;;11.08;58.61;100275.31;2089283;28;46226;-59
2023/04/14 03:52:34;;;;;;;;;2.80;2.80;;;;;11.09;58.33;100276.19;2086745;28;47186;-60
2023/04/14 03:53:37;;;;;;;;;5.00;4.20;;;;;11.09;58.18;100279.72;2080152;28;46316;-59
2023/04/14 03:54:40;;;;;;;;;4.60;4.60;;;;;11.09;58.15;100285.03;2084746;28;46670;-61
2023/04/14 03:55:44;;;;;;;;;3.20;3.20;;;;;11.11;58.25;100277.00;2090468;28;47109;-60
2023/04/14 03:56:47;;;;;;;;;3.00;3.00;;;;;11.10;58.33;100281.44;2097423;28;46254;-62
2023/04/14 03:57:49;;;;;;;;;5.00;5.00;;;;;11.07;58.15;100276.25;2095574;28;46598;-61
2023/04/14 03:58:53;;;;;;;;;4.20;4.20;;;;;11.06;58.38;100274.50;2096004;28;46725;-61
2023/04/14 03:59:54;;;;;;;;;4.75;3.75;;;;;11.03;58.51;100276.34;2090667;28;46071;-62
2023/04/14 04:00:55;;;;;;;;;4.00;4.00;;;;;11.01;58.60;100279.06;2093392;28;45319;-61
2023/04/14 04:01:56;;;;;;;;;4.00;4.00;;;;;10.99;58.50;100283.56;2090228;28;46594;-61
2023/04/14 04:02:57;;;;;;;;;5.00;5.00;;;;;10.97;58.79;100282.72;2105711;28;45687;-60
2023/04/14 04:04:01;;;;;;;;;6.60;5.00;;;;;10.96;58.54;100274.81;2097389;28;46294;-61
2023/04/14 04:05:03;;;;;;;;;5.80;4.40;;;;;10.94;58.71;100277.53;2088711;28;46741;-61
2023/04/14 04:06:05;;;;;;;;;3.00;2.00;;;;;10.93;58.51;100277.56;2092513;28;46644;-61
2023/04/14 04:07:09;;;;;;;;;5.00;4.25;;;;;10.91;58.95;100272.28;2088819;28;46482;-60
2023/04/14 04:08:11;;;;;;;;;4.40;4.40;;;;;10.89;58.69;100269.69;2084684;28;46337;-61
2023/04/14 04:09:14;;;;;;;;;3.20;3.00;;;;;10.88;58.78;100277.69;2096328;28;46416;-62
2023/04/14 04:10:15;;;;;;;;;2.00;2.00;;;;;10.85;58.90;100275.13;2093479;28;46289;-61
2023/04/14 04:11:19;;;;;;;;;4.25;4.25;;;;;10.84;58.69;100278.72;2088650;28;46475;-60
2023/04/14 04:12:21;;;;;;;;;5.75;5.25;;;;;10.83;59.04;100277.84;2099094;28;45678;-61
2023/04/14 04:13:23;;;;;;;;;4.00;4.00;;;;;10.83;58.90;100276.97;2096358;28;46558;-61
2023/04/14 04:14:26;;;;;;;;;4.00;4.00;;;;;10.83;58.72;100276.97;2096017;28;46167;-60
2023/04/14 04:15:28;;;;;;;;;6.00;5.75;;;;;10.83;58.92;100271.66;2090349;28;45698;-60
2023/04/14 04:16:29;;;;;;;;;4.50;4.50;;;;;10.83;58.93;100267.22;2085986;28;45666;-61
2023/04/14 04:17:31;;;;;;;;;4.50;4.00;;;;;10.82;58.98;100270.78;2096719;28;46773;-60
2023/04/14 04:18:37;;;;;;;;;5.00;4.75;;;;;10.82;59.12;100280.53;2096592;28;46842;-61
2023/04/14 04:19:37;;;;;;;;;5.25;5.25;;;;;10.82;59.21;100264.63;2095834;28;46675;-61
2023/04/14 04:20:40;;;;;;;;;2.75;2.75;;;;;10.81;59.33;100282.34;2088842;28;46750;-60
2023/04/14 04:21:44;;;;;;;;;4.80;4.20;;;;;10.80;59.06;100271.75;2087721;28;46541;-61
2023/04/14 04:22:50;;;;;;;;;5.50;5.00;;;;;10.77;59.17;100266.53;2092258;28;46716;-62
2023/04/14 04:23:54;;;;;;;;;5.00;5.00;;;;;10.75;59.28;100271.00;2080846;28;45649;-61
2023/04/14 04:24:56;;;;;;;;;5.50;5.25;;;;;10.74;59.10;100269.28;2090384;28;46636;-60
2023/04/14 04:25:57;;;;;;;;;4.75;4.75;;;;;10.73;59.38;100272.84;2096880;28;46606;-60
2023/04/14 04:26:58;;;;;;;;;5.33;4.67;;;;;10.72;59.12;100266.66;2097973;28;46937;-60
2023/04/14 04:28:00;;;;;;;;;2.00;2.00;;;;;10.70;59.35;100276.47;2096650;28;45817;-61
2023/04/14 04:29:02;;;;;;;;;7.00;6.00;;;;;10.70;59.37;100271.16;2094519;28;46767;-60
2023/04/14 04:30:06;;;;;;;;;4.00;4.00;;;;;10.68;59.74;100258.84;2080456;28;46917;-61
2023/04/14 04:31:08;;;;;;;;;4.25;4.25;;;;;10.67;59.61;100263.28;2095730;28;46541;-61
2023/04/14 04:32:09;;;;;;;;;3.75;3.75;;;;;10.66;59.78;100264.19;2100507;28;47107;-61
2023/04/14 04:33:10;;;;;;;;;5.33;5.33;;;;;10.64;59.61;100258.06;2090767;28;46475;-58
2023/04/14 04:34:11;;;;;;;;;4.00;4.00;;;;;10.64;59.96;100259.84;2089991;28;46313;-59
2023/04/14 04:35:13;;;;;;;;;3.50;3.50;;;;;10.64;59.59;100257.19;2096760;28;46476;-60
2023/04/14 04:36:15;;;;;;;;;3.75;3.75;;;;;10.64;59.81;100254.53;2088356;28;46847;-61
2023/04/14 04:37:17;;;;;;;;;4.60;4.60;;;;;10.65;59.77;100254.47;2096917;28;46495;-59
2023/04/14 04:38:17;;;;;;;;;4.25;4.25;;;;;10.64;59.71;100254.53;2092514;28;46717;-60
2023/04/14 04:39:18;;;;;;;;;4.00;4.00;;;;;10.62;59.84;100251.91;2103623;28;47542;-61
2023/04/14 04:40:18;;;;;;;;;4.00;4.00;;;;;10.61;59.89;100255.50;2096191;28;46381;-59
2023/04/14 04:41:26;;;;;;;;;3.67;3.33;;;;;10.59;59.95;100259.97;2098771;28;46152;-60
2023/04/14 04:42:26;;;;;;;;;3.25;3.25;;;;;10.58;59.77;100255.59;2102557;27;46563;-61
2023/04/14 04:43:27;;;;;;;;;4.00;4.00;;;;;10.57;60.15;100246.75;2094370;28;46839;-61
2023/04/14 04:44:27;;;;;;;;;6.33;6.33;;;;;10.58;59.90;100252.94;2098013;28;45536;-61
2023/04/14 04:45:47;;;;;;;;;4.00;4.00;;;;;10.59;59.83;100258.19;2096339;28;46758;-60
2023/04/14 04:46:52;;;;;;;;;3.00;3.00;;;;;10.59;59.88;100249.38;2096063;28;47142;-59
2023/04/14 04:47:52;;;;;;;;;4.50;4.50;;;;;10.58;59.44;100250.28;2101206;28;46423;-60
2023/04/14 04:48:54;;;;;;;;;5.00;5.00;;;;;10.56;59.81;100247.69;2105271;28;46319;-61
2023/04/14 04:49:54;;;;;;;;;3.00;3.00;;;;;10.56;59.89;100247.69;2088633;28;46925;-61
2023/04/14 04:50:54;;;;;;;;;3.00;3.00;;;;;10.55;59.85;100237.97;2095080;28;46599;-62
2023/04/14 04:51:58;;;;;;;;;3.00;3.00;;;;;10.56;60.17;100246.81;2096898;28;46673;-60
2023/04/14 04:52:59;;;;;;;;;3.75;3.75;;;;;10.56;60.01;100246.81;2094466;28;46835;-59
2023/04/14 04:53:59;;;;;;;;;5.00;3.67;;;;;10.56;60.31;100244.16;2089417;28;46429;-61
2023/04/14 04:54:59;;;;;;;;;4.00;4.00;;;;;10.56;60.05;100242.38;2088256;28;46337;-60